This is the latest recevied weather packets stored in our database for station/object W8CWV-13. If no packets are shown the sender has not sent any weather packets the latest 10 day(s).
| Time | Temp. | Humidity | Pressure | Rain* | Wind** | Luminosity | Snow |
|---|---|---|---|---|---|---|---|
| 1788560696 | 28.89° C | 100% | 1013.9 hPa | - | - | - | - |
| 1788560124 | 28.89° C | 100% | 1014.1 hPa | - | - | - | - |
| 1788559551 | 29.44° C | 100% | 1014.2 hPa | - | - | - | - |
| 1788558975 | 28.89° C | 100% | 1014.5 hPa | - | - | - | - |
| 1788558400 | 29.44° C | 100% | 1014.3 hPa | - | - | - | - |
| 1788557833 | 29.44° C | 100% | 1014.5 hPa | - | - | - | - |
| 1788557257 | 29.44° C | 100% | 1014.6 hPa | - | - | - | - |
| 1788556684 | 30° C | 100% | 1014.7 hPa | - | - | - | - |
| 1788556112 | 30° C | 100% | 1014.4 hPa | - | - | - | - |
| 1788555544 | 30.56° C | 100% | 1014 hPa | - | - | - | - |
| 1788554966 | 30.56° C | 100% | 1017.1 hPa | - | - | - | - |
| 1788554397 | 30° C | 100% | 1016.7 hPa | - | - | - | - |
| 1788553820 | 29.44° C | 100% | 1015.7 hPa | - | - | - | - |
| 1788553245 | 28.89° C | 100% | 1015 hPa | - | - | - | - |
| 1788552677 | 28.33° C | 100% | 1014.1 hPa | - | - | - | - |
| 1788552102 | 28.33° C | 100% | 1013.8 hPa | - | - | - | - |
| 1788551528 | 27.78° C | 100% | 1014 hPa | - | - | - | - |
| 1788550960 | 27.22° C | 100% | 1010.8 hPa | - | - | - | - |
| 1788550379 | 27.22° C | 100% | 1011.5 hPa | - | - | - | - |
| 1788549814 | 27.78° C | 100% | 1013.7 hPa | - | - | - | - |
| 1788549239 | 29.44° C | 100% | 1015.3 hPa | - | - | - | - |
| 1788548668 | 31.11° C | 100% | 1019 hPa | - | - | - | - |
| 1788548095 | 31.67° C | 100% | 1020.2 hPa | - | - | - | - |
| 1788547523 | 32.78° C | 100% | 1021 hPa | - | - | - | - |
| 1788546950 | 33.33° C | 100% | 1020.8 hPa | - | - | - | - |
* Rain since midnight (hover to see other rain measurements)
** Current wind speed in m/s (hover to see current wind gust speed)